Time;durP1;ratioP1;P1;durP2;ratioP2;P2;SDS_P1;SDS_P2;PMS_P1;PMS_P2;Temp;Humidity;BMP_temperature;BMP_pressure;BME280_temperature;BME280_humidity;BME280_pressure;Samples;Min_cycle;Max_cycle;Signal;HPM_P1;HPM_P2
2023/04/12 00:01:18;;;;;;;8.13;1.67;;;8.60;99.90;;;;;;5053792;28;20053;-79
2023/04/12 00:03:49;;;;;;;14.73;2.60;;;8.60;99.90;;;;;;5055150;28;20118;-80
2023/04/12 00:06:16;;;;;;;13.38;2.30;;;8.70;99.90;;;;;;5054572;28;20445;-83
2023/04/12 00:08:45;;;;;;;7.93;2.25;;;8.70;99.90;;;;;;5055192;28;20505;-81
2023/04/12 00:11:11;;;;;;;15.48;3.00;;;8.70;99.90;;;;;;5055238;28;20056;-81
2023/04/12 00:13:37;;;;;;;12.73;2.45;;;8.70;99.90;;;;;;5036800;28;20044;-82
2023/04/12 00:16:03;;;;;;;12.35;2.20;;;8.60;99.90;;;;;;5053449;28;20044;-83
2023/04/12 00:18:29;;;;;;;24.25;3.72;;;8.70;99.90;;;;;;5054692;28;20048;-83
2023/04/12 00:20:55;;;;;;;14.32;2.72;;;8.60;99.90;;;;;;5055636;28;20599;-83
2023/04/12 00:23:20;;;;;;;18.05;3.33;;;8.60;99.90;;;;;;5054317;28;20049;-78
2023/04/12 00:25:46;;;;;;;12.90;2.50;;;8.70;99.90;;;;;;5053835;28;20052;-82
2023/04/12 00:28:12;;;;;;;11.00;2.45;;;8.70;99.90;;;;;;5055033;28;20052;-81
2023/04/12 00:30:40;;;;;;;19.10;2.85;;;8.70;99.90;;;;;;5053507;28;20370;-84
2023/04/12 00:33:05;;;;;;;;;;;8.70;99.90;;;;;;5037925;28;20053;-82
2023/04/12 00:35:31;;;;;;;14.18;2.88;;;8.60;99.90;;;;;;5053673;28;20013;-83
2023/04/12 00:37:56;;;;;;;14.85;2.95;;;8.70;99.90;;;;;;5053470;28;20045;-81
2023/04/12 00:40:25;;;;;;;15.80;2.90;;;8.80;99.90;;;;;;5054423;28;20486;-77
2023/04/12 00:42:51;;;;;;;13.32;2.88;;;8.70;99.90;;;;;;5052881;28;20440;-81
2023/04/12 00:45:17;;;;;;;15.68;3.95;;;8.80;99.90;;;;;;5053189;28;20041;-82
2023/04/12 00:47:43;;;;;;;16.02;3.33;;;8.70;99.90;;;;;;5053272;28;20049;-79
2023/04/12 00:50:09;;;;;;;14.23;3.00;;;8.70;99.90;;;;;;5055222;28;20476;-81
2023/04/12 00:52:36;;;;;;;14.05;2.72;;;8.70;99.90;;;;;;5020103;28;20053;-82
2023/04/12 00:55:06;;;;;;;10.98;2.90;;;8.70;99.90;;;;;;5055175;28;20056;-81
2023/04/12 00:57:38;;;;;;;17.42;2.70;;;8.70;99.90;;;;;;5055322;28;20132;-80
2023/04/12 01:00:11;;;;;;;13.57;2.42;;;8.80;99.90;;;;;;5065214;28;20068;-81
2023/04/12 01:02:45;;;;;;;16.70;2.65;;;8.90;99.90;;;;;;5063471;28;20071;-81
2023/04/12 01:05:13;;;;;;;15.25;2.72;;;9.00;99.90;;;;;;5062215;28;20049;-81
2023/04/12 01:08:24;;;;;;;15.52;2.20;;;9.00;99.90;;;;;;5038531;28;20052;-79
2023/04/12 01:11:10;;;;;;;10.55;2.65;;;9.00;99.90;;;;;;5059830;28;20052;-83
2023/04/12 01:13:44;;;;;;;13.03;2.27;;;9.00;99.90;;;;;;5060030;28;20116;-80
2023/04/12 01:16:34;;;;;;;11.38;2.47;;;9.00;99.90;;;;;;5054078;28;20040;-83
2023/04/12 01:19:11;;;;;;;14.88;2.40;;;9.00;99.90;;;;;;5054303;28;20049;-78
2023/04/12 01:22:18;;;;;;;9.55;1.73;;;9.00;99.90;;;;;;5054513;28;20104;-81
2023/04/12 01:25:01;;;;;;;13.02;1.85;;;9.00;99.90;;;;;;5012429;28;20085;-80
2023/04/12 01:27:47;;;;;;;14.27;2.00;;;9.00;99.90;;;;;;5013188;28;20049;-79
2023/04/12 01:30:16;;;;;;;12.75;2.13;;;9.00;99.90;;;;;;5044721;28;20075;-85
2023/04/12 01:32:47;;;;;;;12.27;1.88;;;9.00;99.90;;;;;;5054577;28;20056;-80
2023/04/12 01:35:14;;;;;;;9.75;2.10;;;8.90;99.90;;;;;;5054789;28;20052;-80
2023/04/12 01:37:40;;;;;;;;;;;8.80;99.90;;;;;;5054554;28;20048;-81
2023/04/12 01:40:08;;;;;;;11.77;1.90;;;8.90;99.90;;;;;;5055269;28;19921;-81
2023/04/12 01:42:34;;;;;;;13.90;2.03;;;8.80;99.90;;;;;;5054083;28;20045;-79
2023/04/12 01:45:01;;;;;;;10.43;2.08;;;8.80;99.90;;;;;;5054748;28;20388;-79
2023/04/12 01:47:27;;;;;;;13.15;1.95;;;8.90;99.90;;;;;;5056236;28;20540;-81
2023/04/12 01:50:21;;;;;;;14.27;2.10;;;8.90;99.90;;;;;;5056846;28;20123;-80
2023/04/12 01:52:55;;;;;;;14.85;2.58;;;8.80;99.90;;;;;;5059093;28;20045;-83
2023/04/12 01:55:24;;;;;;;14.85;2.17;;;8.80;99.90;;;;;;5057893;28;20060;-79
2023/04/12 01:57:52;;;;;;;16.05;3.22;;;8.80;99.90;;;;;;5057751;28;20484;-80
2023/04/12 02:00:19;;;;;;;16.63;2.13;;;8.80;99.90;;;;;;5056855;28;20053;-81
2023/04/12 02:02:45;;;;;;;11.88;1.60;;;8.70;99.90;;;;;;5057923;28;20045;-82
2023/04/12 02:05:11;;;;;;;11.75;2.30;;;8.70;99.90;;;;;;5057299;28;20519;-81
2023/04/12 02:07:38;;;;;;;11.63;2.17;;;8.70;99.90;;;;;;5059072;28;20048;-77
2023/04/12 02:10:04;;;;;;;9.32;1.98;;;8.70;99.90;;;;;;5058214;28;20405;-80
2023/04/12 02:12:30;;;;;;;10.90;1.70;;;8.60;99.90;;;;;;5040752;28;20047;-82
2023/04/12 02:14:57;;;;;;;12.98;2.38;;;8.70;99.90;;;;;;5058869;28;20125;-82
2023/04/12 02:17:23;;;;;;;12.85;1.83;;;8.60;99.90;;;;;;5058221;28;20080;-81
2023/04/12 02:19:49;;;;;;;16.83;2.00;;;8.60;99.90;;;;;;5059166;28;20053;-81
2023/04/12 02:22:16;;;;;;;12.52;2.55;;;8.60;99.90;;;;;;5064483;28;20120;-80
2023/04/12 02:24:41;;;;;;;14.95;2.22;;;8.50;99.90;;;;;;5042853;28;20168;-80
2023/04/12 02:27:07;;;;;;;9.68;2.10;;;8.60;99.90;;;;;;5059205;28;20135;-79
2023/04/12 02:29:33;;;;;;;10.95;2.05;;;8.50;99.90;;;;;;5058774;28;20055;-80
2023/04/12 02:31:58;;;;;;;12.48;1.90;;;8.60;99.90;;;;;;5058261;28;20044;-78
2023/04/12 02:34:24;;;;;;;12.65;2.05;;;8.60;99.90;;;;;;5058150;28;20045;-79
2023/04/12 02:36:50;;;;;;;14.25;1.98;;;8.70;99.90;;;;;;5056805;28;20088;-80
2023/04/12 02:39:20;;;;;;;12.32;1.95;;;8.50;99.90;;;;;;5058862;28;20087;-78
2023/04/12 02:41:46;;;;;;;12.25;2.15;;;8.50;99.90;;;;;;5061960;28;20044;-80
2023/04/12 02:44:12;;;;;;;14.38;2.05;;;8.60;99.90;;;;;;5060546;28;20052;-80
2023/04/12 02:46:38;;;;;;;10.70;1.70;;;8.50;99.90;;;;;;5057614;28;20098;-83
2023/04/12 02:49:03;;;;;;;8.88;1.38;;;8.60;99.90;;;;;;5056097;28;20049;-79
2023/04/12 02:51:30;;;;;;;10.25;1.60;;;8.70;99.90;;;;;;5073907;28;20052;-81
2023/04/12 02:53:55;;;;;;;11.55;1.88;;;8.60;99.90;;;;;;5058152;28;20075;-81
2023/04/12 02:56:23;;;;;;;10.40;1.95;;;8.70;99.90;;;;;;5057215;28;20049;-82
2023/04/12 02:58:49;;;;;;;9.07;1.40;;;8.50;99.90;;;;;;5055675;28;20479;-81
2023/04/12 03:01:15;;;;;;;9.65;1.85;;;8.50;99.90;;;;;;5039128;28;20132;-83
2023/04/12 03:03:41;;;;;;;11.90;1.58;;;8.60;99.90;;;;;;5056844;28;20284;-80
2023/04/12 03:06:08;;;;;;;16.65;2.00;;;8.60;99.90;;;;;;5039489;28;20053;-82
2023/04/12 03:08:34;;;;;;;11.02;1.60;;;8.70;99.90;;;;;;5057440;28;20090;-80
2023/04/12 03:11:00;;;;;;;11.43;1.60;;;8.70;99.90;;;;;;5056198;28;20513;-82
2023/04/12 03:13:26;;;;;;;15.68;2.03;;;8.60;99.90;;;;;;5055774;28;20155;-80
2023/04/12 03:15:58;;;;;;;16.98;2.72;;;8.60;99.90;;;;;;5056485;28;20103;-83
2023/04/12 03:18:24;;;;;;;9.43;2.05;;;8.70;99.90;;;;;;5055214;28;20049;-80
2023/04/12 03:20:51;;;;;;;12.40;2.03;;;8.60;99.90;;;;;;5056382;28;20084;-80
2023/04/12 03:23:17;;;;;;;9.63;1.92;;;8.70;99.90;;;;;;5055268;28;20045;-82
2023/04/12 03:25:43;;;;;;;11.65;1.33;;;8.70;99.90;;;;;;5056278;28;20045;-77
2023/04/12 03:28:09;;;;;;;11.07;1.77;;;8.70;99.90;;;;;;5039711;28;20135;-80
2023/04/12 03:30:35;;;;;;;13.55;2.40;;;8.80;99.90;;;;;;5060976;28;20041;-82
2023/04/12 03:33:01;;;;;;;14.05;2.25;;;8.70;99.90;;;;;;5063698;28;20104;-79
2023/04/12 03:35:26;;;;;;;13.23;2.20;;;8.80;99.90;;;;;;5056304;28;20084;-82
2023/04/12 03:37:52;;;;;;;12.30;2.65;;;8.70;99.90;;;;;;5038558;28;20064;-84
2023/04/12 03:40:18;;;;;;;14.90;2.67;;;8.70;99.90;;;;;;5038991;28;20101;-80
2023/04/12 03:42:44;;;;;;;8.65;1.67;;;8.70;99.90;;;;;;5056024;28;20125;-80
2023/04/12 03:45:10;;;;;;;10.25;3.08;;;8.80;99.90;;;;;;5056131;28;20102;-82
2023/04/12 03:47:35;;;;;;;10.95;2.13;;;8.80;99.90;;;;;;5057280;28;20052;-81
2023/04/12 03:50:06;;;;;;;15.98;3.25;;;8.70;99.90;;;;;;5022593;28;20056;-81
2023/04/12 03:52:35;;;;;;;11.52;2.25;;;8.70;99.90;;;;;;5055631;28;20052;-79
2023/04/12 03:55:00;;;;;;;12.10;2.58;;;8.70;99.90;;;;;;5053989;28;20056;-79
2023/04/12 03:57:26;;;;;;;11.20;2.33;;;8.80;99.90;;;;;;5055164;28;20041;-80
2023/04/12 03:59:52;;;;;;;10.68;2.85;;;8.90;99.90;;;;;;5054163;28;20216;-73
2023/04/12 04:02:18;;;;;;;16.90;3.17;;;8.80;99.90;;;;;;5037116;28;20060;-83
2023/04/12 04:04:44;;;;;;;13.38;3.25;;;8.80;99.90;;;;;;5055129;28;20045;-78
2023/04/12 04:07:10;;;;;;;12.65;2.90;;;8.90;99.90;;;;;;5054272;28;20458;-81
2023/04/12 04:09:36;;;;;;;18.63;3.90;;;8.80;99.90;;;;;;5054393;28;20076;-79
2023/04/12 04:12:02;;;;;;;15.13;2.80;;;8.80;99.90;;;;;;5055119;28;20048;-78
2023/04/12 04:14:27;;;;;;;16.95;2.90;;;8.70;99.90;;;;;;5037758;28;20425;-81
2023/04/12 04:16:54;;;;;;;15.27;2.28;;;8.70;99.90;;;;;;5054086;28;20535;-79
2023/04/12 04:19:20;;;;;;;18.33;2.83;;;8.80;99.90;;;;;;5053860;28;20053;-81
2023/04/12 04:21:46;;;;;;;15.05;2.75;;;8.70;99.90;;;;;;5054199;28;20056;-81
2023/04/12 04:24:13;;;;;;;11.90;2.35;;;8.60;99.90;;;;;;5054965;28;20048;-82
2023/04/12 04:26:39;;;;;;;13.07;2.22;;;8.60;99.90;;;;;;5054176;28;20135;-81
2023/04/12 04:29:04;;;;;;;7.47;2.30;;;8.60;99.90;;;;;;5053901;28;20087;-82
2023/04/12 04:31:35;;;;;;;13.98;2.40;;;8.60;99.90;;;;;;5054527;28;20132;-83
2023/04/12 04:34:05;;;;;;;9.60;1.88;;;8.60;99.90;;;;;;5055148;28;20044;-82
2023/04/12 04:36:34;;;;;;;14.48;2.97;;;8.60;99.90;;;;;;5056046;28;20382;-82
2023/04/12 04:39:01;;;;;;;13.02;2.92;;;8.60;99.90;;;;;;5056640;28;20103;-84
2023/04/12 04:41:26;;;;;;;18.75;3.25;;;8.50;99.90;;;;;;5063701;28;20389;-81
2023/04/12 04:43:55;;;;;;;11.82;2.10;;;8.60;99.90;;;;;;5057782;28;20044;-81
2023/04/12 04:46:20;;;;;;;12.63;2.63;;;8.50;99.90;;;;;;5055947;28;20045;-80
2023/04/12 04:48:48;;;;;;;13.00;2.30;;;8.50;99.90;;;;;;5056234;28;20049;-83
2023/04/12 04:51:13;;;;;;;;;;;8.60;99.90;;;;;;5054068;28;20053;-80
2023/04/12 04:53:39;;;;;;;11.43;2.65;;;8.50;99.90;;;;;;5054360;28;19927;-83
2023/04/12 04:56:06;;;;;;;14.82;2.60;;;8.40;99.90;;;;;;5053956;28;20044;-80
2023/04/12 04:58:31;;;;;;;13.37;1.70;;;8.30;99.90;;;;;;5055206;28;20092;-82
2023/04/12 05:00:58;;;;;;;9.55;2.35;;;8.30;99.90;;;;;;5054753;28;20361;-84
2023/04/12 05:03:27;;;;;;;12.93;2.17;;;8.30;99.90;;;;;;5054540;28;20049;-79
2023/04/12 05:05:57;;;;;;;13.00;3.00;;;8.30;99.90;;;;;;5054809;28;20047;-82
2023/04/12 05:08:23;;;;;;;13.13;2.40;;;8.20;99.90;;;;;;5053688;28;20128;-83
2023/04/12 05:10:51;;;;;;;11.35;2.40;;;8.30;99.90;;;;;;5055524;28;20048;-82
2023/04/12 05:13:17;;;;;;;10.18;2.45;;;8.20;99.90;;;;;;5053017;28;20128;-80
2023/04/12 05:15:43;;;;;;;12.07;1.95;;;8.30;99.90;;;;;;5054009;28;20045;-82
2023/04/12 05:18:09;;;;;;;14.10;2.42;;;8.30;99.90;;;;;;5053523;28;20045;-82
2023/04/12 05:20:37;;;;;;;9.82;2.03;;;8.20;99.90;;;;;;5055142;28;20079;-82
2023/04/12 05:23:03;;;;;;;15.00;2.75;;;8.20;99.90;;;;;;5054394;28;20091;-82
2023/04/12 05:25:29;;;;;;;10.90;2.53;;;8.20;99.90;;;;;;5054142;28;20045;-84
2023/04/12 05:27:55;;;;;;;15.15;2.97;;;8.30;99.90;;;;;;5053134;28;20052;-81
2023/04/12 05:30:21;;;;;;;10.32;2.50;;;8.30;99.90;;;;;;5054566;28;20045;-82
2023/04/12 05:32:46;;;;;;;15.40;2.75;;;8.30;99.90;;;;;;5054464;28;20068;-82
2023/04/12 05:35:12;;;;;;;12.23;2.53;;;8.30;99.90;;;;;;5055530;28;20060;-78
2023/04/12 05:37:38;;;;;;;11.13;3.10;;;8.20;99.90;;;;;;5052658;28;20444;-84
2023/04/12 05:40:08;;;;;;;16.75;3.40;;;8.30;99.90;;;;;;5052549;28;20068;-75
2023/04/12 05:42:36;;;;;;;11.70;2.40;;;8.30;99.90;;;;;;5052800;28;20048;-79
2023/04/12 05:45:02;;;;;;;12.50;3.65;;;8.30;99.90;;;;;;5055840;28;20378;-82
2023/04/12 05:47:28;;;;;;;13.57;3.10;;;8.30;99.90;;;;;;5056852;28;20070;-80
2023/04/12 05:49:54;;;;;;;8.85;2.13;;;8.30;99.90;;;;;;5057191;28;20081;-80
2023/04/12 05:52:20;;;;;;;13.93;3.58;;;8.30;99.90;;;;;;5056525;28;20122;-82
2023/04/12 05:54:46;;;;;;;17.02;2.60;;;8.30;99.90;;;;;;5054975;28;20059;-81
2023/04/12 05:57:11;;;;;;;14.75;3.50;;;8.20;99.90;;;;;;5021732;28;20049;-85
2023/04/12 05:59:37;;;;;;;10.63;2.75;;;8.30;99.90;;;;;;5056349;28;20045;-81
2023/04/12 06:02:03;;;;;;;16.52;2.88;;;8.30;99.90;;;;;;5056232;28;20143;-80
2023/04/12 06:04:30;;;;;;;13.88;2.25;;;8.20;99.90;;;;;;5055507;28;20441;-81
2023/04/12 06:06:56;;;;;;;15.13;3.15;;;8.20;99.90;;;;;;5054617;28;20505;-76
2023/04/12 06:09:22;;;;;;;9.73;2.40;;;8.20;99.90;;;;;;5053992;28;20049;-80
2023/04/12 06:11:48;;;;;;;17.35;2.58;;;8.20;99.90;;;;;;5055623;28;20140;-78
2023/04/12 06:14:13;;;;;;;17.58;2.88;;;8.20;99.90;;;;;;5071606;28;20049;-80
2023/04/12 06:16:39;;;;;;;12.35;2.25;;;8.10;99.90;;;;;;5056363;28;20037;-79
2023/04/12 06:19:05;;;;;;;7.30;1.65;;;8.10;99.90;;;;;;5054151;28;20049;-80
2023/04/12 06:21:30;;;;;;;15.05;3.03;;;8.20;99.90;;;;;;5056176;28;20478;-81
2023/04/12 06:23:56;;;;;;;14.30;3.22;;;8.20;99.90;;;;;;5055496;28;20040;-77
2023/04/12 06:26:22;;;;;;;14.50;2.15;;;8.30;99.90;;;;;;5057004;28;20508;-80
2023/04/12 06:28:48;;;;;;;20.70;3.13;;;8.20;99.90;;;;;;5056886;28;20049;-80
2023/04/12 06:31:17;;;;;;;12.30;2.42;;;8.10;99.90;;;;;;5056599;28;20049;-74
2023/04/12 06:33:43;;;;;;;7.05;2.70;;;8.10;99.90;;;;;;5057751;28;20045;-77
2023/04/12 06:36:10;;;;;;;12.48;3.03;;;8.00;99.90;;;;;;5060205;28;20141;-77
2023/04/12 06:38:36;;;;;;;12.63;2.80;;;8.00;99.90;;;;;;5061215;28;20084;-78
2023/04/12 06:41:02;;;;;;;14.55;3.08;;;8.10;99.90;;;;;;5076470;28;20207;-83
2023/04/12 06:43:27;;;;;;;14.93;3.30;;;8.00;99.90;;;;;;5059920;28;20048;-78
2023/04/12 06:45:53;;;;;;;10.70;3.10;;;8.00;99.90;;;;;;5058133;28;20041;-79
2023/04/12 06:48:19;;;;;;;12.38;3.38;;;8.10;99.90;;;;;;5094680;28;20041;-81
2023/04/12 06:50:45;;;;;;;11.95;3.45;;;8.00;99.90;;;;;;5059395;28;20087;-81
2023/04/12 06:53:14;;;;;;;13.07;3.85;;;8.10;99.90;;;;;;5059085;28;20051;-82
2023/04/12 06:55:40;;;;;;;18.77;5.00;;;8.00;99.90;;;;;;5076403;28;20041;-84
2023/04/12 06:58:06;;;;;;;18.88;4.75;;;8.00;99.90;;;;;;5061659;28;20040;-82
2023/04/12 07:00:32;;;;;;;13.40;3.88;;;8.00;99.90;;;;;;5070770;28;20063;-79
2023/04/12 07:02:57;;;;;;;14.15;4.22;;;8.00;99.90;;;;;;5065085;28;20156;-79
2023/04/12 07:05:23;;;;;;;16.73;3.85;;;8.10;99.90;;;;;;5060449;28;20053;-82
2023/04/12 07:07:49;;;;;;;13.60;3.33;;;8.10;99.90;;;;;;5060563;28;20045;-78
2023/04/12 07:10:15;;;;;;;10.80;2.60;;;8.20;99.90;;;;;;5061258;28;20103;-80
2023/04/12 07:12:41;;;;;;;7.72;3.00;;;8.20;99.90;;;;;;5061652;28;20098;-80
2023/04/12 07:15:07;;;;;;;10.05;3.03;;;8.20;99.90;;;;;;5058828;28;20049;-78
2023/04/12 07:17:33;;;;;;;11.95;3.28;;;8.30;99.90;;;;;;5059367;28;20493;-78
2023/04/12 07:19:59;;;;;;;20.55;5.00;;;8.30;99.90;;;;;;5058539;28;20049;-78
2023/04/12 07:22:25;;;;;;;10.13;3.53;;;8.30;99.90;;;;;;5059997;28;20086;-80
2023/04/12 07:24:50;;;;;;;13.57;3.65;;;8.30;99.90;;;;;;5075165;28;20049;-80
2023/04/12 07:27:16;;;;;;;8.55;2.83;;;8.30;99.90;;;;;;5059529;28;20037;-78
2023/04/12 07:29:42;;;;;;;13.07;3.90;;;8.30;99.90;;;;;;5059989;28;20052;-81
2023/04/12 07:32:09;;;;;;;10.65;4.20;;;8.20;99.90;;;;;;5059608;28;20057;-81
2023/04/12 07:34:36;;;;;;;9.95;4.20;;;8.20;99.90;;;;;;5057744;28;20044;-79
2023/04/12 07:37:02;;;;;;;14.13;5.05;;;8.10;99.90;;;;;;5057495;28;20140;-80
2023/04/12 07:39:30;;;;;;;12.25;5.45;;;8.10;99.90;;;;;;5057923;28;20076;-83
2023/04/12 07:41:56;;;;;;;11.73;4.72;;;8.10;99.90;;;;;;5059479;28;20045;-80
2023/04/12 07:44:22;;;;;;;14.50;5.30;;;8.10;99.90;;;;;;5060505;28;20127;-78
2023/04/12 07:46:48;;;;;;;14.23;5.13;;;8.00;99.90;;;;;;5074817;28;20041;-79
2023/04/12 07:49:13;;;;;;;17.13;5.82;;;8.10;99.90;;;;;;5058068;28;20497;-79
2023/04/12 07:51:40;;;;;;;13.80;5.18;;;8.00;99.90;;;;;;5060300;28;20048;-79
2023/04/12 07:54:06;;;;;;;15.68;5.40;;;8.00;99.90;;;;;;5057502;28;20068;-82
2023/04/12 07:56:35;;;;;;;16.83;6.07;;;8.10;99.90;;;;;;5057916;28;20143;-75
2023/04/12 07:59:01;;;;;;;12.30;6.03;;;8.10;99.90;;;;;;5025328;28;20053;-78
2023/04/12 08:01:27;;;;;;;13.23;6.03;;;8.10;99.90;;;;;;5025585;28;20067;-77
2023/04/12 08:03:53;;;;;;;15.52;5.85;;;8.10;99.90;;;;;;5061169;28;20052;-81
2023/04/12 08:06:18;;;;;;;13.90;5.72;;;8.10;99.90;;;;;;5058847;28;20052;-80
2023/04/12 08:08:44;;;;;;;12.30;5.55;;;8.20;99.90;;;;;;5084397;28;20048;-82
2023/04/12 08:11:10;;;;;;;12.90;5.82;;;8.30;99.90;;;;;;5061520;28;20053;-74
2023/04/12 08:13:36;;;;;;;14.73;6.07;;;8.20;99.90;;;;;;5055741;28;20067;-82
2023/04/12 08:16:02;;;;;;;28.38;8.88;;;8.30;99.90;;;;;;5058035;28;20048;-77
2023/04/12 08:18:28;;;;;;;13.88;6.15;;;8.30;99.90;;;;;;5058385;28;20048;-79
2023/04/12 08:20:55;;;;;;;11.95;6.43;;;8.30;99.90;;;;;;5056177;28;20445;-78
2023/04/12 08:23:22;;;;;;;14.40;6.35;;;8.30;99.90;;;;;;5057119;28;20084;-82
2023/04/12 08:25:47;;;;;;;13.80;7.00;;;8.40;99.90;;;;;;5040633;28;20127;-79
2023/04/12 08:28:13;;;;;;;17.50;7.60;;;8.40;99.90;;;;;;5058330;28;20084;-82
2023/04/12 08:30:39;;;;;;;15.70;7.13;;;8.50;99.90;;;;;;5072966;28;20451;-80
2023/04/12 08:33:05;;;;;;;15.27;7.65;;;8.40;99.90;;;;;;5041720;28;20135;-82
2023/04/12 08:35:31;;;;;;;16.02;7.55;;;8.40;99.90;;;;;;5056402;28;20086;-73
2023/04/12 08:37:57;;;;;;;16.40;8.32;;;8.40;99.90;;;;;;5040352;28;20056;-82
2023/04/12 08:40:23;;;;;;;18.42;8.13;;;8.40;99.90;;;;;;5056648;28;20378;-80
2023/04/12 08:42:51;;;;;;;15.52;8.30;;;8.50;99.90;;;;;;5055475;28;20040;-79
2023/04/12 08:45:17;;;;;;;15.95;7.75;;;8.50;99.90;;;;;;5055536;28;20045;-79
2023/04/12 08:47:44;;;;;;;19.48;9.35;;;8.50;99.90;;;;;;5057066;28;20055;-77
2023/04/12 08:50:12;;;;;;;20.35;8.48;;;8.50;99.90;;;;;;5057449;28;20124;-81
2023/04/12 08:52:39;;;;;;;16.35;8.38;;;8.50;99.90;;;;;;5056565;28;20091;-78
2023/04/12 08:55:06;;;;;;;14.75;7.80;;;8.50;99.90;;;;;;5058450;28;20052;-83
2023/04/12 08:57:34;;;;;;;17.73;7.80;;;8.60;99.90;;;;;;5058519;28;20098;-82
2023/04/12 09:00:01;;;;;;;17.05;8.18;;;8.60;99.90;;;;;;5063009;28;20048;-80
2023/04/12 09:02:27;;;;;;;14.48;7.93;;;8.60;99.90;;;;;;5056014;28;20498;-75
2023/04/12 09:04:53;;;;;;;17.93;8.77;;;8.60;99.90;;;;;;5054116;28;20148;-83
2023/04/12 09:07:22;;;;;;;15.38;8.40;;;8.50;99.90;;;;;;5054559;28;20045;-76
2023/04/12 09:09:49;;;;;;;19.23;8.73;;;8.50;99.90;;;;;;5037707;28;20094;-81
2023/04/12 09:12:16;;;;;;;17.98;8.38;;;8.60;99.90;;;;;;5056047;28;20059;-76
2023/04/12 09:14:45;;;;;;;17.30;9.07;;;8.70;99.90;;;;;;5055681;28;20049;-81
2023/04/12 09:17:24;;;;;;;16.55;8.25;;;8.90;99.90;;;;;;5056576;28;20045;-76
2023/04/12 09:19:51;;;;;;;15.50;8.68;;;9.00;99.90;;;;;;5063518;28;20044;-79
2023/04/12 09:22:16;;;;;;;14.17;8.07;;;9.20;99.90;;;;;;5063847;28;20041;-78
2023/04/12 09:24:52;;;;;;;16.30;8.40;;;9.40;99.90;;;;;;5055073;28;20060;-76
2023/04/12 09:27:21;;;;;;;11.77;7.28;;;9.60;99.90;;;;;;5059498;28;20133;-82
2023/04/12 09:29:50;;;;;;;14.43;7.47;;;9.70;99.90;;;;;;5063267;28;20049;-80
2023/04/12 09:32:25;;;;;;;13.32;6.95;;;9.90;99.90;;;;;;5062567;28;20101;-80
2023/04/12 09:34:56;;;;;;;14.18;6.75;;;9.90;99.90;;;;;;5060105;28;20067;-84
2023/04/12 09:37:22;;;;;;;10.80;6.00;;;9.90;99.90;;;;;;5062861;28;20048;-82
2023/04/12 09:39:59;;;;;;;13.20;5.55;;;10.00;99.90;;;;;;5057817;28;20084;-82
2023/04/12 09:42:25;;;;;;;10.18;5.40;;;10.20;99.90;;;;;;5059217;28;20053;-81
2023/04/12 09:44:52;;;;;;;10.15;5.25;;;10.10;99.90;;;;;;5057283;28;20092;-82
2023/04/12 09:47:18;;;;;;;;;;;10.10;99.90;;;;;;5057934;28;20106;-81
2023/04/12 09:49:44;;;;;;;12.13;5.17;;;10.10;99.90;;;;;;5061747;28;19921;-82
2023/04/12 09:52:12;;;;;;;11.70;4.70;;;10.30;99.90;;;;;;5059312;28;20048;-84
2023/04/12 09:54:42;;;;;;;9.80;4.65;;;10.30;99.90;;;;;;5059902;28;20469;-82
2023/04/12 09:57:08;;;;;;;9.23;4.35;;;10.50;99.90;;;;;;5063939;28;20053;-84
2023/04/12 09:59:39;;;;;;;14.45;3.72;;;10.60;99.90;;;;;;5062709;28;20045;-83
2023/04/12 10:02:16;;;;;;;9.32;3.65;;;10.80;99.90;;;;;;5060007;28;20048;-81
2023/04/12 10:04:43;;;;;;;10.18;3.67;;;11.00;99.90;;;;;;5059395;28;20045;-74
2023/04/12 10:07:09;;;;;;;8.38;3.20;;;11.20;99.90;;;;;;5060547;28;20048;-78
2023/04/12 10:09:38;;;;;;;8.00;3.10;;;11.10;99.90;;;;;;5064451;28;20030;-81
2023/04/12 10:12:04;;;;;;;16.42;3.95;;;11.30;99.90;;;;;;5066946;28;20045;-85
2023/04/12 10:14:30;;;;;;;9.15;3.30;;;11.50;99.90;;;;;;5047273;28;20056;-83
2023/04/12 10:17:02;;;;;;;8.68;2.53;;;11.70;99.90;;;;;;5046613;28;20037;-85
2023/04/12 10:19:29;;;;;;;9.68;2.90;;;11.80;99.90;;;;;;5045467;28;20081;-77
2023/04/12 10:21:55;;;;;;;8.43;2.67;;;11.70;99.90;;;;;;5059330;28;20136;-84
2023/04/12 10:24:23;;;;;;;10.98;3.47;;;11.90;99.90;;;;;;5044416;28;20102;-79
2023/04/12 10:26:49;;;;;;;14.75;2.85;;;11.90;99.90;;;;;;5064840;28;20041;-78
2023/04/12 10:29:26;;;;;;;10.88;2.97;;;11.90;99.90;;;;;;5063277;28;20110;-85
2023/04/12 10:32:16;;;;;;;12.77;3.58;;;11.70;99.90;;;;;;5056888;28;20053;-77
2023/04/12 10:34:42;;;;;;;11.75;2.95;;;11.80;99.90;;;;;;5050694;28;20106;-77
2023/04/12 10:37:08;;;;;;;15.18;3.53;;;11.80;99.90;;;;;;5057437;28;20045;-79
2023/04/12 10:39:46;;;;;;;10.57;3.20;;;11.90;99.90;;;;;;5057571;28;20053;-77
2023/04/12 10:42:28;;;;;;;11.43;3.08;;;12.00;99.90;;;;;;5040466;28;20076;-81
2023/04/12 10:44:56;;;;;;;12.32;3.00;;;12.30;99.90;;;;;;5058695;28;20041;-80
2023/04/12 10:47:47;;;;;;;12.85;2.58;;;12.60;99.90;;;;;;5040461;28;20053;-78
2023/04/12 10:50:24;;;;;;;11.18;2.50;;;12.70;99.90;;;;;;5039917;28;20049;-81
2023/04/12 10:53:12;;;;;;;;;;;13.00;99.90;;;;;;5058544;28;20122;-79
2023/04/12 10:55:43;;;;;;;11.43;2.28;;;13.00;99.90;;;;;;5057322;28;19921;-81
2023/04/12 10:58:10;;;;;;;9.70;1.92;;;13.10;99.90;;;;;;5056667;28;20044;-79
2023/04/12 11:00:54;;;;;;;11.15;2.13;;;13.20;99.90;;;;;;5056753;28;20366;-79
2023/04/12 11:03:20;;;;;;;9.93;1.65;;;13.10;99.90;;;;;;5058224;28;20148;-76
2023/04/12 11:06:02;;;;;;;8.00;1.83;;;12.90;99.90;;;;;;5056980;28;20091;-80
2023/04/12 11:08:29;;;;;;;7.25;1.73;;;12.90;99.90;;;;;;5057761;28;20044;-80
2023/04/12 11:11:03;;;;;;;15.60;2.13;;;12.80;99.90;;;;;;5058338;28;20045;-77
2023/04/12 11:13:37;;;;;;;13.00;2.00;;;12.90;99.90;;;;;;5055761;28;20155;-79
2023/04/12 11:16:05;;;;;;;11.52;1.73;;;13.20;99.90;;;;;;5057006;28;20381;-78
2023/04/12 11:18:34;;;;;;;7.78;1.73;;;13.40;99.90;;;;;;5056220;28;20049;-79
2023/04/12 11:21:03;;;;;;;11.00;1.52;;;13.40;99.90;;;;;;5055664;28;20461;-79
2023/04/12 11:23:30;;;;;;;10.25;1.92;;;13.60;99.90;;;;;;5056555;28;20120;-78
2023/04/12 11:25:56;;;;;;;9.10;1.70;;;13.80;99.90;;;;;;5056106;28;20048;-78
2023/04/12 11:28:22;;;;;;;12.10;2.15;;;13.80;99.90;;;;;;5056455;28;20055;-77
2023/04/12 11:31:06;;;;;;;11.02;1.88;;;13.80;99.90;;;;;;5055375;28;20049;-81
2023/04/12 11:33:39;;;;;;;13.95;2.03;;;13.80;99.90;;;;;;5057570;28;20037;-76
2023/04/12 11:36:12;;;;;;;16.77;2.15;;;13.30;99.90;;;;;;5044062;28;20068;-78
2023/04/12 11:38:38;;;;;;;13.15;2.72;;;13.40;99.90;;;;;;5058517;28;20057;-80
2023/04/12 11:41:07;;;;;;;13.10;1.80;;;13.50;99.90;;;;;;5054777;28;20041;-78
2023/04/12 11:43:34;;;;;;;9.50;1.63;;;13.40;99.90;;;;;;5055219;28;20084;-81
2023/04/12 11:46:00;;;;;;;10.13;2.20;;;13.50;99.90;;;;;;5056752;28;20049;-81
2023/04/12 11:48:30;;;;;;;11.82;1.77;;;13.30;99.90;;;;;;5039286;28;20057;-80
2023/04/12 11:50:56;;;;;;;10.68;1.50;;;13.30;99.90;;;;;;5055864;28;20482;-82
2023/04/12 11:53:29;;;;;;;14.13;2.28;;;13.20;99.90;;;;;;5056518;28;20131;-79
2023/04/12 11:55:58;;;;;;;10.68;1.50;;;13.30;99.90;;;;;;5055799;28;20461;-78
2023/04/12 11:58:27;;;;;;;9.65;1.52;;;13.40;99.90;;;;;;5054611;28;20051;-79
2023/04/12 12:00:55;;;;;;;13.20;1.98;;;13.20;99.90;;;;;;5054661;28;20053;-78
2023/04/12 12:03:22;;;;;;;11.32;1.80;;;13.30;99.90;;;;;;5054399;28;20057;-80
2023/04/12 12:05:48;;;;;;;14.02;1.83;;;13.40;99.90;;;;;;5055991;28;20052;-80
2023/04/12 12:08:14;;;;;;;16.63;1.38;;;13.30;99.90;;;;;;5055585;28;20049;-82
2023/04/12 12:10:40;;;;;;;10.65;1.52;;;13.50;99.90;;;;;;5054603;28;20059;-79
2023/04/12 12:13:13;;;;;;;15.88;1.55;;;13.50;99.90;;;;;;5037877;28;20045;-78
2023/04/12 12:15:43;;;;;;;12.55;1.35;;;13.70;99.90;;;;;;5053992;28;20150;-79
2023/04/12 12:18:09;;;;;;;8.60;1.20;;;14.00;99.90;;;;;;5055752;28;20409;-79
2023/04/12 12:20:49;;;;;;;11.48;1.23;;;14.40;99.90;;;;;;5054973;28;20075;-80
2023/04/12 12:23:32;;;;;;;12.90;1.60;;;14.60;99.90;;;;;;5037225;28;20044;-80
2023/04/12 12:26:05;;;;;;;13.13;1.35;;;14.60;99.90;;;;;;5038393;28;20055;-83
2023/04/12 12:28:37;;;;;;;9.68;0.98;;;14.50;99.90;;;;;;5054127;28;20045;-76
2023/04/12 12:31:05;;;;;;;12.50;1.67;;;14.50;99.90;;;;;;5053865;28;20385;-80
2023/04/12 12:33:38;;;;;;;11.93;1.27;;;14.20;99.90;;;;;;5054112;28;20501;-80
2023/04/12 12:36:05;;;;;;;9.20;1.23;;;14.00;99.90;;;;;;5053553;28;20049;-74
2023/04/12 12:38:35;;;;;;;8.38;0.80;;;14.00;99.90;;;;;;5054970;28;20175;-81
2023/04/12 12:41:18;;;;;;;15.13;1.40;;;13.90;99.90;;;;;;5054934;28;20401;-79
2023/04/12 12:43:45;;;;;;;8.50;1.20;;;13.80;99.90;;;;;;5041916;28;20056;-81
2023/04/12 12:46:11;;;;;;;16.65;1.63;;;13.80;99.90;;;;;;5062405;28;20452;-79
2023/04/12 12:48:41;;;;;;;9.23;1.17;;;13.90;99.90;;;;;;5053449;28;20366;-80
2023/04/12 12:51:11;;;;;;;11.48;1.40;;;14.20;99.90;;;;;;5055285;28;20080;-77
2023/04/12 12:53:40;;;;;;;12.85;1.52;;;14.30;99.90;;;;;;5054210;28;20351;-80